Time;durP1;ratioP1;P1;durP2;ratioP2;P2;SDS_P1;SDS_P2;PMS_P1;PMS_P2;Temp;Humidity;BMP_temperature;BMP_pressure;BME280_temperature;BME280_humidity;BME280_pressure;Samples;Min_cycle;Max_cycle;Signal;HPM_P1;HPM_P2
2022/01/14 00:00:36;;;;;;;3.46;1.84;;;;;;;;;;350101;150;862011;-60
2022/01/14 00:01:38;;;;;;;3.70;1.76;;;;;;;;;;350218;151;865671;-60
2022/01/14 00:02:40;;;;;;;3.13;2.01;;;;;;;;;;350199;150;865375;-61
2022/01/14 00:03:42;;;;;;;2.20;1.93;;;;;;;;;;350942;150;858766;-61
2022/01/14 00:04:43;;;;;;;2.43;1.42;;;;;;;;;;349793;152;858875;-61
2022/01/14 00:05:45;;;;;;;2.04;1.74;;;;;;;;;;350081;152;856349;-61
2022/01/14 00:06:47;;;;;;;2.44;1.90;;;;;;;;;;350854;150;859613;-61
2022/01/14 00:07:48;;;;;;;2.95;1.81;;;;;;;;;;350151;151;864621;-61
2022/01/14 00:08:50;;;;;;;3.22;1.81;;;;;;;;;;355706;148;857689;-61
2022/01/14 00:09:53;;;;;;;2.23;1.84;;;;;;;;;;362600;146;865176;-61
2022/01/14 00:10:57;;;;;;;2.31;1.85;;;;;;;;;;361619;144;864342;-61
2022/01/14 00:11:59;;;;;;;1.91;1.42;;;;;;;;;;363472;145;859968;-61
2022/01/14 00:13:10;;;;;;;2.16;1.73;;;;;;;;;;361140;145;858113;-61
2022/01/14 00:15:26;;;;;;;3.07;2.24;;;;;;;;;;362789;146;857335;-60
2022/01/14 00:16:29;;;;;;;2.23;2.03;;;;;;;;;;364247;145;865166;-61
2022/01/14 00:17:30;;;;;;;1.71;1.61;;;;;;;;;;362653;144;857318;-62
2022/01/14 00:18:32;;;;;;;2.39;1.77;;;;;;;;;;364131;146;864851;-61
2022/01/14 00:19:34;;;;;;;2.05;1.81;;;;;;;;;;364739;146;865889;-61
2022/01/14 00:20:36;;;;;;;3.57;1.94;;;;;;;;;;362560;144;857257;-61
2022/01/14 00:21:39;;;;;;;2.69;1.96;;;;;;;;;;362349;146;857667;-61
2022/01/14 00:22:41;;;;;;;2.41;1.74;;;;;;;;;;365665;145;866279;-62
2022/01/14 00:23:44;;;;;;;1.94;1.59;;;;;;;;;;364803;145;856558;-61
2022/01/14 00:32:52;;;;;;;1.69;1.49;;;;;;;;;;365281;145;859241;-60
2022/01/14 00:33:43;;;;;;;2.94;2.52;;;;;;;;;;357715;147;858242;-60
2022/01/14 00:34:44;;;;;;;2.54;1.69;;;;;;;;;;365698;144;859301;-60
2022/01/14 00:35:46;;;;;;;1.54;1.31;;;;;;;;;;362995;145;856860;-60
2022/01/14 00:36:47;;;;;;;1.90;1.69;;;;;;;;;;364343;145;856501;-60
2022/01/14 00:37:49;;;;;;;2.34;1.58;;;;;;;;;;363550;146;864904;-63
2022/01/14 00:38:50;;;;;;;1.87;1.65;;;;;;;;;;362755;144;864473;-60
2022/01/14 00:39:52;;;;;;;3.00;1.61;;;;;;;;;;363840;146;859414;-62
2022/01/14 00:40:54;;;;;;;1.43;1.33;;;;;;;;;;361933;146;865914;-61
2022/01/14 00:41:55;;;;;;;1.59;1.26;;;;;;;;;;361908;144;865552;-61
2022/01/14 00:42:57;;;;;;;2.37;1.46;;;;;;;;;;361576;145;860495;-61
2022/01/14 00:44:01;;;;;;;1.73;1.43;;;;;;;;;;362098;147;858309;-61
2022/01/14 00:45:07;;;;;;;1.81;1.47;;;;;;;;;;361734;145;857216;-61
2022/01/14 00:46:08;;;;;;;2.09;1.66;;;;;;;;;;361874;146;865847;-62
2022/01/14 00:47:09;;;;;;;2.63;1.72;;;;;;;;;;363070;146;857528;-61
2022/01/14 00:48:11;;;;;;;2.15;1.49;;;;;;;;;;363527;145;865361;-61
2022/01/14 00:49:12;;;;;;;2.15;1.58;;;;;;;;;;362664;145;866260;-61
2022/01/14 00:50:15;;;;;;;1.83;1.62;;;;;;;;;;362322;146;865830;-61
2022/01/14 00:51:17;;;;;;;2.39;1.51;;;;;;;;;;362232;147;857595;-61
2022/01/14 00:52:18;;;;;;;2.16;1.57;;;;;;;;;;363339;144;857201;-60
2022/01/14 00:53:20;;;;;;;1.46;1.25;;;;;;;;;;364649;146;859108;-60
2022/01/14 00:54:22;;;;;;;1.87;1.56;;;;;;;;;;363151;145;865587;-60
2022/01/14 00:55:38;;;;;;;1.83;1.36;;;;;;;;;;363241;145;862505;-60
2022/01/14 00:56:44;;;;;;;1.25;1.07;;;;;;;;;;361000;146;860746;-60
2022/01/14 01:00:12;;;;;;;1.87;1.31;;;;;;;;;;363690;146;858909;-62
2022/01/14 01:01:14;;;;;;;2.27;1.45;;;;;;;;;;361503;145;857766;-62
2022/01/14 01:02:16;;;;;;;3.71;1.17;;;;;;;;;;363354;145;858749;-62
2022/01/14 01:03:18;;;;;;;2.64;1.28;;;;;;;;;;361625;144;857763;-62
2022/01/14 01:04:20;;;;;;;1.88;1.24;;;;;;;;;;360960;145;857202;-62
2022/01/14 01:05:22;;;;;;;1.97;1.41;;;;;;;;;;362440;146;857335;-62
2022/01/14 01:06:24;;;;;;;1.98;1.37;;;;;;;;;;362353;144;856402;-61
2022/01/14 01:07:26;;;;;;;1.89;1.47;;;;;;;;;;361241;146;857288;-62
2022/01/14 01:08:29;;;;;;;2.22;1.39;;;;;;;;;;361753;147;863244;-61
2022/01/14 01:09:31;;;;;;;2.06;1.41;;;;;;;;;;363278;145;864772;-61
2022/01/14 01:10:33;;;;;;;1.63;1.18;;;;;;;;;;363086;144;857202;-61
2022/01/14 01:11:37;;;;;;;1.50;1.40;;;;;;;;;;362213;145;857219;-61
2022/01/14 01:12:59;;;;;;;1.54;1.01;;;;;;;;;;361769;146;864878;-61
2022/01/14 01:14:10;;;;;;;2.03;1.36;;;;;;;;;;361961;144;857764;-61
2022/01/14 01:15:15;;;;;;;1.99;1.08;;;;;;;;;;362591;147;858467;-61
2022/01/14 01:16:17;;;;;;;1.87;1.41;;;;;;;;;;363509;146;857864;-62
2022/01/14 01:17:18;;;;;;;1.86;1.14;;;;;;;;;;362286;144;857632;-62
2022/01/14 01:18:20;;;;;;;1.69;1.35;;;;;;;;;;361069;147;866196;-62
2022/01/14 01:19:22;;;;;;;1.74;1.03;;;;;;;;;;362158;145;857299;-62
2022/01/14 01:20:23;;;;;;;1.34;1.24;;;;;;;;;;361481;146;864925;-62
2022/01/14 01:21:25;;;;;;;1.37;1.27;;;;;;;;;;362174;145;864831;-62
2022/01/14 01:22:27;;;;;;;2.03;1.24;;;;;;;;;;362028;147;857174;-62
2022/01/14 01:23:30;;;;;;;2.59;1.27;;;;;;;;;;362372;145;864883;-62
2022/01/14 01:24:31;;;;;;;1.77;1.23;;;;;;;;;;362755;146;857423;-61
2022/01/14 01:25:40;;;;;;;2.35;1.18;;;;;;;;;;362087;145;857183;-61
2022/01/14 01:26:39;;;;;;;1.60;1.50;;;;;;;;;;363886;145;858236;-59
2022/01/14 01:27:42;;;;;;;1.91;1.50;;;;;;;;;;364034;144;857465;-61
2022/01/14 01:30:13;;;;;;;1.70;1.38;;;;;;;;;;360989;144;857770;-61
2022/01/14 01:32:03;;;;;;;1.31;1.10;;;;;;;;;;362791;145;865855;-60
2022/01/14 01:33:05;;;;;;;4.30;1.27;;;;;;;;;;364300;146;862252;-60
2022/01/14 01:34:08;;;;;;;2.33;1.39;;;;;;;;;;362707;144;856561;-60
2022/01/14 01:35:09;;;;;;;1.74;1.40;;;;;;;;;;362721;146;859775;-61
2022/01/14 01:36:11;;;;;;;1.25;1.15;;;;;;;;;;363301;145;865669;-61
2022/01/14 01:37:13;;;;;;;1.48;1.31;;;;;;;;;;363741;145;857333;-61
2022/01/14 01:38:16;;;;;;;2.14;1.47;;;;;;;;;;361886;144;863295;-61
2022/01/14 01:39:19;;;;;;;1.55;1.27;;;;;;;;;;363094;145;865134;-61
2022/01/14 01:40:22;;;;;;;2.59;1.11;;;;;;;;;;362741;145;858158;-60
2022/01/14 01:41:24;;;;;;;1.38;1.08;;;;;;;;;;361726;146;857248;-61
2022/01/14 01:42:28;;;;;;;1.68;0.99;;;;;;;;;;361507;145;858286;-61
2022/01/14 01:43:29;;;;;;;3.67;1.50;;;;;;;;;;362178;147;858725;-61
2022/01/14 01:44:30;;;;;;;1.62;1.30;;;;;;;;;;362218;145;857683;-61
2022/01/14 01:45:32;;;;;;;2.17;1.40;;;;;;;;;;363058;145;864913;-61
2022/01/14 01:46:37;;;;;;;1.36;1.13;;;;;;;;;;362689;144;866800;-61
2022/01/14 01:47:38;;;;;;;1.67;1.24;;;;;;;;;;363558;144;865476;-61
2022/01/14 01:48:40;;;;;;;1.76;1.24;;;;;;;;;;362998;145;857754;-61
2022/01/14 01:49:41;;;;;;;1.71;1.13;;;;;;;;;;362343;147;868450;-60
2022/01/14 01:54:31;;;;;;;1.31;1.07;;;;;;;2.34;78.14;99264.14;378123;139;880414;-60
2022/01/14 01:55:33;;;;;;;2.08;1.04;;;;;;;2.29;78.00;99263.22;369023;144;858794;-61
2022/01/14 01:56:35;;;;;;;0.99;0.91;;;;;;;2.23;77.96;99268.23;370292;142;859984;-60
2022/01/14 01:57:36;;;;;;;1.76;0.92;;;;;;;;;;370890;141;857869;-60
2022/01/14 01:58:38;;;;;;;1.74;0.91;;;;;;;;;;368364;144;866448;-60
2022/01/14 01:59:39;;;;;;;1.86;0.99;;;;;;;;;;369812;142;859002;-60
2022/01/14 02:00:41;;;;;;;1.59;1.06;;;;;;;;;;371067;142;857403;-63
2022/01/14 02:01:43;;;;;;;1.83;1.24;;;;;;;;;;370771;142;865531;-63
2022/01/14 02:02:46;;;;;;;1.24;1.09;;;;;;;;;;369721;143;864975;-61
2022/01/14 02:03:48;;;;;;;1.37;1.11;;;;;;;;;;371386;142;863927;-62
2022/01/14 02:04:49;;;;;;;2.45;1.45;;;;;;;;;;370622;142;858664;-62
2022/01/14 02:05:51;;;;;;;1.87;1.14;;;;;;;;;;369194;141;857270;-62
2022/01/14 02:06:53;;;;;;;1.61;1.30;;;;;;;;;;369798;143;865815;-62
2022/01/14 02:07:54;;;;;;;1.55;1.13;;;;;;;;;;371349;144;856820;-62
2022/01/14 02:08:56;;;;;;;2.64;1.24;;;;;;;;;;370070;142;864876;-62
2022/01/14 02:09:59;;;;;;;3.06;1.41;;;;;;;;;;369530;143;865123;-61
2022/01/14 02:11:01;;;;;;;2.00;1.24;;;;;;;;;;370768;142;857470;-61
2022/01/14 02:12:08;;;;;;;2.50;1.30;;;;;;;;;;370955;144;858771;-62
2022/01/14 02:13:06;;;;;;;2.98;1.95;;;;;;;;;;366632;144;857666;-62
2022/01/14 02:14:25;;;;;;;2.03;1.43;;;;;;;;;;365457;145;857330;-59
2022/01/14 02:15:25;;;;;;;2.03;1.21;;;;;;;;;;365402;145;858212;-60
2022/01/14 02:16:19;;;;;;;3.51;1.28;;;;;;;;;;365276;145;857154;-60
2022/01/14 02:17:47;;;;;;;2.84;1.59;;;;;;;;;;364735;144;866585;-61
2022/01/14 02:18:41;;;;;;;1.94;1.32;;;;;;;;;;364353;146;857679;-61
2022/01/14 02:22:49;;;;;;;2.37;1.24;;;;;;;;;;364873;144;859949;-62
2022/01/14 02:23:55;;;;;;;1.56;1.19;;;;;;;;;;366406;144;858627;-62
2022/01/14 02:25:03;;;;;;;2.09;1.39;;;;;;;;;;364925;144;857566;-62
2022/01/14 02:25:59;;;;;;;2.61;1.17;;;;;;;;;;363785;145;857158;-62
2022/01/14 02:27:00;;;;;;;2.15;1.49;;;;;;;;;;364610;145;857160;-61
2022/01/14 02:28:05;;;;;;;2.51;2.06;;;;;;;;;;366211;145;866596;-60
2022/01/14 02:29:07;;;;;;;1.64;1.33;;;;;;;;;;365126;145;866757;-61
2022/01/14 02:30:09;;;;;;;1.61;1.28;;;;;;;;;;364889;144;866689;-60
2022/01/14 02:31:11;;;;;;;1.60;1.46;;;;;;;;;;363893;145;857272;-58
2022/01/14 02:32:13;;;;;;;1.51;1.19;;;;;;;;;;364123;144;865772;-61
2022/01/14 02:33:15;;;;;;;1.24;1.11;;;;;;;;;;366315;144;857310;-61
2022/01/14 02:34:17;;;;;;;1.42;0.98;;;;;;;;;;364821;145;857452;-61
2022/01/14 02:35:18;;;;;;;2.17;1.53;;;;;;;;;;364557;144;857148;-60
2022/01/14 02:36:20;;;;;;;1.55;1.20;;;;;;;;;;366048;144;857671;-61
2022/01/14 02:37:23;;;;;;;2.09;1.34;;;;;;;;;;366261;145;857191;-61
2022/01/14 02:38:24;;;;;;;1.98;1.34;;;;;;;;;;364993;146;857280;-61
2022/01/14 02:39:26;;;;;;;1.71;1.41;;;;;;;;;;366453;144;857152;-58
2022/01/14 02:40:28;;;;;;;1.99;1.65;;;;;;;;;;366721;144;866325;-59
2022/01/14 02:41:29;;;;;;;2.31;1.46;;;;;;;;;;367080;144;858841;-60
2022/01/14 02:42:31;;;;;;;2.01;1.39;;;;;;;;;;365866;146;857891;-60
2022/01/14 02:43:34;;;;;;;2.89;1.47;;;;;;;;;;366480;144;864930;-60
2022/01/14 02:44:36;;;;;;;1.52;1.24;;;;;;;;;;365047;144;859622;-61
2022/01/14 02:45:38;;;;;;;2.24;1.63;;;;;;;;;;358354;147;859492;-58
2022/01/14 02:46:43;;;;;;;1.74;1.33;;;;;;;;;;359026;147;865600;-63
2022/01/14 02:47:43;;;;;;;2.38;1.53;;;;;;;;;;366268;144;859029;-61
2022/01/14 02:48:45;;;;;;;2.66;1.69;;;;;;;;;;365286;145;859020;-61
2022/01/14 02:49:46;;;;;;;3.00;1.46;;;;;;;;;;365881;145;856749;-61
2022/01/14 02:50:58;;;;;;;1.61;1.45;;;;;;;;;;364713;144;858607;-60
2022/01/14 02:51:58;;;;;;;1.91;1.71;;;;;;;;;;363816;144;865233;-60
2022/01/14 02:53:01;;;;;;;2.27;1.41;;;;;;;;;;366390;144;857633;-61
2022/01/14 02:54:15;;;;;;;2.40;1.94;;;;;;;;;;365450;144;858476;-61
2022/01/14 02:55:21;;;;;;;3.25;1.71;;;;;;;;;;365303;144;857623;-61
2022/01/14 02:56:19;;;;;;;2.79;1.90;;;;;;;;;;364609;144;857788;-61
2022/01/14 02:57:21;;;;;;;2.10;1.66;;;;;;;;;;364900;144;858503;-61
2022/01/14 02:58:23;;;;;;;2.14;1.59;;;;;;;;;;365144;144;857331;-61
2022/01/14 02:59:25;;;;;;;5.76;1.93;;;;;;;;;;364850;146;857446;-60
2022/01/14 03:00:29;;;;;;;2.14;1.57;;;;;;;;;;364806;144;857191;-61
2022/01/14 03:01:30;;;;;;;3.27;1.66;;;;;;;;;;366013;144;857223;-60
2022/01/14 03:02:32;;;;;;;2.03;1.79;;;;;;;;;;365411;144;857637;-60
2022/01/14 03:03:34;;;;;;;3.48;2.05;;;;;;;;;;366713;144;857213;-60
2022/01/14 03:04:39;;;;;;;2.98;1.56;;;;;;;;;;364797;144;864851;-60
2022/01/14 03:05:39;;;;;;;3.64;1.98;;;;;;;;;;364760;144;864939;-61
2022/01/14 03:06:41;;;;;;;2.20;1.79;;;;;;;;;;365593;144;858728;-60
2022/01/14 03:07:42;;;;;;;3.31;1.81;;;;;;;;;;363739;145;865149;-60
2022/01/14 03:08:44;;;;;;;2.14;1.36;;;;;;;;;;365501;144;864569;-62
2022/01/14 03:09:45;;;;;;;1.86;1.59;;;;;;;;;;365683;145;856310;-60
2022/01/14 03:10:56;;;;;;;2.76;1.71;;;;;;;;;;365501;144;857422;-61
2022/01/14 03:11:57;;;;;;;3.69;2.16;;;;;;;;;;357820;147;857182;-61
2022/01/14 03:12:59;;;;;;;4.25;2.02;;;;;;;;;;357829;147;857286;-61
2022/01/14 03:25:51;;;;;;;4.40;1.55;;;;;;;2.42;80.03;99120.31;370730;142;880017;-61
2022/01/14 03:26:53;;;;;;;1.57;1.37;;;;;;;2.35;79.76;99119.39;365757;144;856599;-61
2022/01/14 03:27:55;;;;;;;2.43;1.38;;;;;;;2.36;79.63;99128.77;364751;146;858945;-62
2022/01/14 03:28:56;;;;;;;1.26;1.01;;;;;;;2.37;79.48;99121.95;362501;146;856231;-61
2022/01/14 03:29:58;;;;;;;1.56;1.07;;;;;;;;;;363274;145;863844;-61
2022/01/14 03:31:00;;;;;;;2.99;1.10;;;;;;;;;;365158;144;865885;-62
2022/01/14 03:32:03;;;;;;;1.69;1.24;;;;;;;;;;362278;146;859236;-61
2022/01/14 03:33:05;;;;;;;2.06;1.26;;;;;;;;;;362265;144;857983;-61
2022/01/14 03:34:06;;;;;;;1.47;1.16;;;;;;;;;;358177;147;858707;-61
2022/01/14 03:35:09;;;;;;;1.76;1.06;;;;;;;;;;357476;147;864817;-61
2022/01/14 03:36:11;;;;;;;1.68;1.29;;;;;;;;;;355711;147;864997;-61
2022/01/14 03:37:12;;;;;;;2.33;1.52;;;;;;;;;;356497;147;859364;-60
2022/01/14 03:38:14;;;;;;;2.04;1.53;;;;;;;;;;356557;148;865381;-61
2022/01/14 03:39:16;;;;;;;1.93;1.28;;;;;;;;;;356945;148;857586;-61
2022/01/14 03:40:18;;;;;;;1.62;1.16;;;;;;;;;;356153;148;859116;-59
2022/01/14 03:41:20;;;;;;;1.99;1.39;;;;;;;;;;356076;147;857313;-59
2022/01/14 03:42:21;;;;;;;2.36;1.65;;;;;;;;;;357889;147;861707;-60
2022/01/14 03:43:23;;;;;;;1.84;1.49;;;;;;;;;;355854;147;858509;-60
2022/01/14 03:44:24;;;;;;;2.22;1.44;;;;;;;;;;357545;147;860586;-60
2022/01/14 03:45:26;;;;;;;2.56;1.34;;;;;;;;;;356626;148;865034;-60
2022/01/14 03:46:28;;;;;;;2.54;1.57;;;;;;;;;;358879;147;857269;-60
2022/01/14 03:47:29;;;;;;;1.96;1.52;;;;;;;;;;356750;147;864818;-60
2022/01/14 03:48:31;;;;;;;2.67;1.64;;;;;;;;;;355848;148;866194;-60
2022/01/14 03:49:32;;;;;;;1.94;1.56;;;;;;;;;;357324;147;859195;-60
2022/01/14 03:50:35;;;;;;;1.30;1.19;;;;;;;;;;355054;147;858086;-60
2022/01/14 03:51:36;;;;;;;2.70;1.48;;;;;;;;;;357115;147;857471;-60
2022/01/14 03:52:38;;;;;;;1.48;1.38;;;;;;;;;;355926;147;857884;-60
2022/01/14 03:53:39;;;;;;;3.05;1.96;;;;;;;;;;355316;147;856318;-61
2022/01/14 03:54:41;;;;;;;1.89;1.69;;;;;;;;;;356249;147;859221;-60
2022/01/14 03:55:43;;;;;;;1.86;1.35;;;;;;;;;;356322;147;865049;-60
2022/01/14 03:56:45;;;;;;;2.10;1.31;;;;;;;;;;358260;147;856520;-61
2022/01/14 03:57:46;;;;;;;2.46;1.84;;;;;;;;;;356642;148;860062;-61
2022/01/14 03:58:48;;;;;;;2.19;1.60;;;;;;;;;;356710;147;864846;-60
2022/01/14 03:59:49;;;;;;;2.41;1.70;;;;;;;;;;354698;148;857936;-60
2022/01/14 04:00:51;;;;;;;2.54;1.69;;;;;;;;;;355296;147;866252;-60
2022/01/14 04:01:53;;;;;;;2.28;1.51;;;;;;;;;;350393;150;865034;-60
2022/01/14 04:02:54;;;;;;;1.96;1.40;;;;;;;;;;350661;150;857840;-60
2022/01/14 04:03:56;;;;;;;2.69;1.84;;;;;;;;;;356996;148;867285;-60
2022/01/14 04:04:57;;;;;;;2.26;1.59;;;;;;;;;;356215;148;859165;-60
2022/01/14 04:05:59;;;;;;;2.71;1.51;;;;;;;;;;357375;147;865798;-60
2022/01/14 04:07:01;;;;;;;2.69;1.52;;;;;;;;;;354299;148;864886;-60
2022/01/14 04:08:03;;;;;;;2.16;1.30;;;;;;;;;;356550;148;865306;-60
2022/01/14 04:09:04;;;;;;;3.84;1.61;;;;;;;;;;357248;147;865813;-60
2022/01/14 04:10:10;;;;;;;2.40;1.72;;;;;;;;;;358265;148;858116;-60
2022/01/14 04:11:11;;;;;;;4.20;1.96;;;;;;;;;;354723;149;857250;-60
2022/01/14 04:12:19;;;;;;;1.97;1.43;;;;;;;;;;354789;147;857101;-60
2022/01/14 04:13:20;;;;;;;1.81;1.36;;;;;;;;;;353544;149;858962;-59
2022/01/14 04:15:44;;;;;;;2.13;1.73;;;;;;;;;;354757;147;857296;-59
2022/01/14 04:16:45;;;;;;;3.03;1.68;;;;;;;;;;357206;149;860264;-60
2022/01/14 04:17:47;;;;;;;2.09;1.79;;;;;;;;;;357111;147;856281;-61
2022/01/14 04:18:49;;;;;;;1.77;1.58;;;;;;;;;;355535;147;864562;-59
2022/01/14 04:19:51;;;;;;;2.70;1.12;;;;;;;;;;356224;148;857446;-60
2022/01/14 04:20:52;;;;;;;1.84;1.39;;;;;;;;;;354301;149;857793;-59
2022/01/14 04:21:54;;;;;;;3.50;1.75;;;;;;;;;;355692;148;863856;-61
2022/01/14 04:22:56;;;;;;;2.17;1.69;;;;;;;;;;356608;147;864768;-61
2022/01/14 04:23:57;;;;;;;2.27;1.46;;;;;;;;;;357844;148;865031;-62
2022/01/14 04:24:59;;;;;;;2.51;1.71;;;;;;;;;;357198;148;857870;-59
2022/01/14 04:26:00;;;;;;;2.55;1.41;;;;;;;;;;354491;149;859123;-59
2022/01/14 04:27:02;;;;;;;4.56;1.73;;;;;;;;;;352835;150;857900;-59
2022/01/14 04:28:04;;;;;;;3.29;1.69;;;;;;;;;;353494;150;861020;-59
2022/01/14 04:29:05;;;;;;;2.10;1.49;;;;;;;;;;354512;149;864626;-60
2022/01/14 04:30:08;;;;;;;2.23;1.61;;;;;;;;;;353105;148;857740;-60
2022/01/14 04:31:10;;;;;;;2.21;1.78;;;;;;;;;;354393;150;857217;-60
2022/01/14 04:32:11;;;;;;;2.07;1.55;;;;;;;;;;356382;149;857154;-63
2022/01/14 04:33:13;;;;;;;2.39;1.33;;;;;;;;;;353738;148;857287;-60
2022/01/14 04:34:16;;;;;;;2.13;1.58;;;;;;;;;;353402;150;859057;-60
2022/01/14 04:35:17;;;;;;;2.22;1.29;;;;;;;;;;354816;149;859000;-60
2022/01/14 04:36:19;;;;;;;2.09;1.62;;;;;;;;;;352578;149;858293;-60
2022/01/14 04:37:22;;;;;;;2.22;1.43;;;;;;;;;;354681;148;858525;-60
2022/01/14 04:38:23;;;;;;;2.63;1.71;;;;;;;;;;355654;150;865004;-60
2022/01/14 04:39:25;;;;;;;1.47;1.27;;;;;;;;;;355446;148;857411;-60
2022/01/14 04:40:26;;;;;;;2.29;1.57;;;;;;;;;;353674;148;863224;-61
2022/01/14 04:41:28;;;;;;;1.63;1.31;;;;;;;;;;354787;148;864932;-60
2022/01/14 04:42:30;;;;;;;2.31;1.66;;;;;;;;;;354176;148;865772;-60
2022/01/14 04:43:32;;;;;;;2.25;1.57;;;;;;;;;;354691;148;866253;-60
2022/01/14 04:44:34;;;;;;;2.27;1.64;;;;;;;;;;355096;148;858154;-60
2022/01/14 04:47:44;;;;;;;2.33;1.48;;;;;;;;;;354225;148;857434;-60
2022/01/14 04:48:46;;;;;;;2.65;1.71;;;;;;;;;;353110;148;857419;-60
2022/01/14 04:49:47;;;;;;;1.38;1.25;;;;;;;;;;352905;148;867667;-60
2022/01/14 04:50:52;;;;;;;2.65;1.57;;;;;;;;;;355204;148;865004;-60
2022/01/14 04:51:56;;;;;;;2.28;1.82;;;;;;;;;;355817;148;865280;-60
2022/01/14 04:52:57;;;;;;;2.29;1.54;;;;;;;;;;354981;149;857284;-62
2022/01/14 04:53:59;;;;;;;2.23;1.83;;;;;;;;;;353746;148;857140;-60
2022/01/14 04:55:01;;;;;;;2.57;1.51;;;;;;;;;;355228;148;866002;-60
2022/01/14 04:56:03;;;;;;;0.96;0.95;;;;;;;;;;355325;150;858582;-61
2022/01/14 04:57:05;;;;;;;2.48;1.47;;;;;;;;;;353593;149;864869;-60
2022/01/14 04:58:06;;;;;;;2.16;1.62;;;;;;;;;;354170;148;859490;-60
2022/01/14 04:59:08;;;;;;;2.02;1.56;;;;;;;;;;355017;148;857241;-60
2022/01/14 05:00:12;;;;;;;4.51;1.87;;;;;;;;;;349650;150;865059;-60
2022/01/14 05:01:14;;;;;;;1.56;1.28;;;;;;;;;;348159;151;864827;-61
2022/01/14 05:02:15;;;;;;;2.23;1.73;;;;;;;;;;357104;148;857353;-60
2022/01/14 05:03:17;;;;;;;1.81;1.61;;;;;;;;;;355342;148;863092;-60
2022/01/14 05:04:19;;;;;;;2.03;1.65;;;;;;;;;;354243;148;857310;-60
2022/01/14 05:05:22;;;;;;;3.94;1.85;;;;;;;;;;354722;148;866526;-61
2022/01/14 05:06:24;;;;;;;2.49;1.67;;;;;;;;;;355296;150;866872;-61
2022/01/14 05:07:27;;;;;;;1.51;1.35;;;;;;;;;;353966;148;864948;-60
2022/01/14 05:08:36;;;;;;;2.13;1.36;;;;;;;;;;353130;148;865839;-60
2022/01/14 05:09:38;;;;;;;2.89;1.78;;;;;;;;;;354647;148;858859;-60
2022/01/14 05:10:48;;;;;;;3.17;1.94;;;;;;;;;;353193;148;865560;-59
2022/01/14 05:11:41;;;;;;;2.45;1.87;;;;;;;;;;352309;148;864596;-62
2022/01/14 05:12:43;;;;;;;2.86;1.89;;;;;;;;;;355708;148;865011;-60
2022/01/14 05:13:44;;;;;;;1.73;1.45;;;;;;;;;;356876;148;857327;-62
2022/01/14 05:14:46;;;;;;;2.04;1.65;;;;;;;;;;354837;148;856484;-60
2022/01/14 05:15:47;;;;;;;2.83;1.68;;;;;;;;;;352768;148;857510;-60
2022/01/14 05:16:49;;;;;;;1.59;1.34;;;;;;;;;;354170;150;858685;-60
2022/01/14 05:17:51;;;;;;;4.07;1.54;;;;;;;;;;353743;149;864771;-61
2022/01/14 05:18:52;;;;;;;2.21;1.44;;;;;;;;;;355340;148;856560;-60
2022/01/14 05:19:58;;;;;;;2.11;1.85;;;;;;;;;;355142;150;863704;-60
2022/01/14 05:21:00;;;;;;;1.94;1.72;;;;;;;;;;356143;149;868403;-59
2022/01/14 05:22:01;;;;;;;2.88;1.78;;;;;;;;;;354039;148;856601;-60
2022/01/14 05:23:03;;;;;;;2.33;1.45;;;;;;;;;;354306;148;863565;-60
2022/01/14 05:24:05;;;;;;;2.66;1.60;;;;;;;;;;354223;148;865231;-60
2022/01/14 05:25:07;;;;;;;2.67;1.41;;;;;;;;;;354079;148;865434;-60
2022/01/14 05:26:11;;;;;;;2.21;1.83;;;;;;;;;;356914;147;859100;-62
2022/01/14 05:27:13;;;;;;;1.80;1.26;;;;;;;;;;357103;147;864900;-62
2022/01/14 05:28:14;;;;;;;2.77;1.98;;;;;;;;;;356819;148;858715;-62
2022/01/14 05:29:16;;;;;;;2.84;2.12;;;;;;;;;;355421;147;857299;-62
2022/01/14 05:30:18;;;;;;;3.68;1.83;;;;;;;;;;356828;147;866342;-62
2022/01/14 05:31:20;;;;;;;2.63;2.11;;;;;;;;;;356487;147;858890;-62
2022/01/14 05:32:22;;;;;;;3.58;2.16;;;;;;;;;;356483;147;859388;-62
2022/01/14 05:33:25;;;;;;;2.22;1.89;;;;;;;;;;356690;148;857337;-62
2022/01/14 05:34:26;;;;;;;1.71;1.50;;;;;;;;;;354050;149;859058;-62
2022/01/14 05:35:28;;;;;;;3.55;1.96;;;;;;;;;;355488;147;859049;-62
2022/01/14 05:36:30;;;;;;;2.32;2.03;;;;;;;;;;357903;147;865748;-62
2022/01/14 05:37:31;;;;;;;2.17;1.89;;;;;;;;;;355194;149;857423;-62
2022/01/14 05:38:33;;;;;;;2.96;2.14;;;;;;;;;;354615;149;859169;-62
2022/01/14 05:39:35;;;;;;;5.49;2.09;;;;;;;;;;356775;147;865333;-62
2022/01/14 05:40:37;;;;;;;2.83;2.07;;;;;;;;;;354788;147;857517;-62
2022/01/14 05:41:38;;;;;;;3.20;1.93;;;;;;;;;;355979;147;857541;-64
2022/01/14 05:42:40;;;;;;;2.56;1.71;;;;;;;;;;356081;147;865390;-62
2022/01/14 05:43:42;;;;;;;5.23;2.53;;;;;;;;;;354821;147;864459;-62
2022/01/14 05:44:44;;;;;;;3.94;2.55;;;;;;;;;;356964;149;857746;-62
2022/01/14 05:45:45;;;;;;;4.47;2.07;;;;;;;;;;356138;148;865119;-62
2022/01/14 05:46:47;;;;;;;3.57;1.81;;;;;;;;;;356119;147;858182;-62
2022/01/14 05:47:49;;;;;;;5.09;2.84;;;;;;;;;;356902;149;866450;-62
2022/01/14 05:48:50;;;;;;;3.88;2.29;;;;;;;;;;353524;147;859065;-62
2022/01/14 05:49:52;;;;;;;4.18;2.65;;;;;;;;;;355140;147;857814;-62
2022/01/14 05:50:53;;;;;;;5.11;2.97;;;;;;;;;;358055;147;859751;-62
2022/01/14 05:51:55;;;;;;;4.36;2.10;;;;;;;;;;356041;148;864973;-62
2022/01/14 05:52:56;;;;;;;4.26;2.59;;;;;;;;;;356652;147;857406;-62
2022/01/14 05:53:58;;;;;;;4.16;2.01;;;;;;;;;;356584;147;856576;-62
2022/01/14 05:55:00;;;;;;;4.77;2.86;;;;;;;;;;356340;148;865230;-62
2022/01/14 05:56:01;;;;;;;3.87;2.71;;;;;;;;;;358880;147;857315;-62
2022/01/14 05:57:03;;;;;;;3.84;2.74;;;;;;;;;;356552;147;864812;-62
2022/01/14 05:58:05;;;;;;;3.20;2.29;;;;;;;;;;356939;147;856649;-62
2022/01/14 05:59:06;;;;;;;4.73;2.73;;;;;;;;;;356764;147;858654;-60
2022/01/14 06:00:10;;;;;;;4.71;2.57;;;;;;;;;;355716;147;857507;-62
2022/01/14 06:01:11;;;;;;;4.59;3.11;;;;;;;;;;356364;147;857286;-62
2022/01/14 06:02:13;;;;;;;4.77;2.63;;;;;;;;;;357969;147;863670;-61
2022/01/14 06:03:15;;;;;;;4.46;3.19;;;;;;;;;;356912;147;864261;-61
2022/01/14 06:04:16;;;;;;;4.01;2.97;;;;;;;;;;355404;147;856065;-61
2022/01/14 06:05:18;;;;;;;4.41;2.82;;;;;;;;;;357525;148;861001;-61
2022/01/14 06:06:21;;;;;;;7.61;2.91;;;;;;;;;;356692;147;856513;-60
2022/01/14 06:07:22;;;;;;;4.86;3.23;;;;;;;;;;355640;147;859261;-63
2022/01/14 06:08:24;;;;;;;4.79;3.35;;;;;;;;;;354463;147;864363;-63
2022/01/14 06:09:25;;;;;;;10.51;3.33;;;;;;;;;;356319;147;865029;-62
2022/01/14 06:10:28;;;;;;;4.18;3.26;;;;;;;;;;355725;148;865775;-61
2022/01/14 06:11:29;;;;;;;5.15;3.83;;;;;;;;;;358966;147;865424;-61
2022/01/14 06:12:31;;;;;;;6.85;3.81;;;;;;;;;;356808;149;860042;-61
2022/01/14 06:13:33;;;;;;;5.88;3.85;;;;;;;;;;356547;148;864884;-63
2022/01/14 06:14:34;;;;;;;9.91;4.16;;;;;;;;;;355151;147;859184;-62
2022/01/14 06:15:36;;;;;;;6.26;3.38;;;;;;;;;;356645;147;866952;-61
2022/01/14 06:16:37;;;;;;;6.39;3.63;;;;;;;;;;355797;149;865351;-60
2022/01/14 06:17:39;;;;;;;4.06;2.85;;;;;;;;;;356807;147;864950;-61
2022/01/14 06:18:41;;;;;;;7.89;3.31;;;;;;;;;;355058;147;857616;-61
2022/01/14 06:19:42;;;;;;;5.66;3.78;;;;;;;;;;355825;147;857251;-61
2022/01/14 06:20:44;;;;;;;6.26;3.86;;;;;;;;;;356262;148;856321;-61
2022/01/14 06:21:47;;;;;;;5.95;3.06;;;;;;;;;;357201;147;865651;-62
2022/01/14 06:22:49;;;;;;;7.90;4.45;;;;;;;;;;358754;148;865626;-61
2022/01/14 06:23:50;;;;;;;5.19;3.11;;;;;;;;;;355337;148;859817;-61
2022/01/14 06:24:52;;;;;;;6.66;3.28;;;;;;;;;;355720;149;857608;-61
2022/01/14 06:25:54;;;;;;;7.68;3.79;;;;;;;;;;355395;148;859979;-60
2022/01/14 06:26:55;;;;;;;5.24;3.14;;;;;;;;;;356469;149;865093;-60
2022/01/14 06:27:57;;;;;;;6.04;3.51;;;;;;;;;;354298;150;866588;-61
2022/01/14 06:28:58;;;;;;;8.92;4.10;;;;;;;;;;352723;149;864791;-61
2022/01/14 06:30:01;;;;;;;7.73;4.34;;;;;;;;;;351140;149;857502;-60
2022/01/14 06:31:02;;;;;;;10.73;3.35;;;;;;;;;;352467;151;857365;-61
2022/01/14 06:32:04;;;;;;;5.54;3.06;;;;;;;;;;351996;149;857362;-61
2022/01/14 06:33:06;;;;;;;7.10;4.51;;;;;;;;;;354375;151;858682;-61
2022/01/14 06:34:07;;;;;;;8.49;4.36;;;;;;;;;;354608;149;857335;-61
2022/01/14 06:35:10;;;;;;;5.26;3.91;;;;;;;;;;352657;149;857295;-62
2022/01/14 06:36:13;;;;;;;7.39;3.78;;;;;;;;;;355611;149;857988;-61
2022/01/14 06:37:15;;;;;;;8.24;4.41;;;;;;;;;;354535;149;859017;-61
2022/01/14 06:38:17;;;;;;;9.55;4.02;;;;;;;;;;352894;149;857387;-63
2022/01/14 06:39:19;;;;;;;7.53;4.28;;;;;;;;;;354749;149;857335;-61
2022/01/14 06:40:22;;;;;;;6.01;4.12;;;;;;;;;;355165;151;857293;-62
2022/01/14 06:41:24;;;;;;;6.44;3.75;;;;;;;;;;348126;153;858376;-62
2022/01/14 06:42:27;;;;;;;6.43;4.50;;;;;;;;;;341994;154;857318;-64